sensor_id;sensor_type;location;lat;lon;timestamp;temperature;humidity
27567;DHT22;15006;48.584;9.186;2023-12-20T00:01:58;3.00;94.80
27567;DHT22;15006;48.584;9.186;2023-12-20T00:04:24;3.00;95.00
27567;DHT22;15006;48.584;9.186;2023-12-20T00:06:50;3.10;95.20
27567;DHT22;15006;48.584;9.186;2023-12-20T00:09:16;3.10;95.30
27567;DHT22;15006;48.584;9.186;2023-12-20T00:11:43;3.10;95.30
27567;DHT22;15006;48.584;9.186;2023-12-20T00:14:08;3.10;95.20
27567;DHT22;15006;48.584;9.186;2023-12-20T00:16:34;3.10;95.00
27567;DHT22;15006;48.584;9.186;2023-12-20T00:19:01;3.20;95.10
27567;DHT22;15006;48.584;9.186;2023-12-20T00:21:27;3.10;95.00
27567;DHT22;15006;48.584;9.186;2023-12-20T00:23:53;3.20;95.30
27567;DHT22;15006;48.584;9.186;2023-12-20T00:26:19;3.20;95.20
27567;DHT22;15006;48.584;9.186;2023-12-20T00:28:45;3.20;95.30
27567;DHT22;15006;48.584;9.186;2023-12-20T00:31:11;3.20;95.00
27567;DHT22;15006;48.584;9.186;2023-12-20T00:33:37;3.20;94.90
27567;DHT22;15006;48.584;9.186;2023-12-20T00:36:03;3.30;95.10
27567;DHT22;15006;48.584;9.186;2023-12-20T00:38:30;3.30;95.10
27567;DHT22;15006;48.584;9.186;2023-12-20T00:40:56;3.30;95.00
27567;DHT22;15006;48.584;9.186;2023-12-20T00:43:22;3.30;94.80
27567;DHT22;15006;48.584;9.186;2023-12-20T00:45:49;3.40;94.80
27567;DHT22;15006;48.584;9.186;2023-12-20T00:48:15;3.40;95.00
27567;DHT22;15006;48.584;9.186;2023-12-20T00:50:41;3.40;94.50
27567;DHT22;15006;48.584;9.186;2023-12-20T00:53:07;3.40;94.60
27567;DHT22;15006;48.584;9.186;2023-12-20T00:55:33;3.40;94.60
27567;DHT22;15006;48.584;9.186;2023-12-20T00:57:59;3.40;94.80
27567;DHT22;15006;48.584;9.186;2023-12-20T01:00:26;3.50;94.90
27567;DHT22;15006;48.584;9.186;2023-12-20T01:02:52;3.50;94.70
27567;DHT22;15006;48.584;9.186;2023-12-20T01:05:19;3.50;94.60
27567;DHT22;15006;48.584;9.186;2023-12-20T01:07:45;3.50;94.60
27567;DHT22;15006;48.584;9.186;2023-12-20T01:10:11;3.40;94.50
27567;DHT22;15006;48.584;9.186;2023-12-20T01:12:37;3.50;94.40
27567;DHT22;15006;48.584;9.186;2023-12-20T01:15:03;3.50;94.40
27567;DHT22;15006;48.584;9.186;2023-12-20T01:17:30;3.40;94.40
27567;DHT22;15006;48.584;9.186;2023-12-20T01:19:56;3.40;94.50
27567;DHT22;15006;48.584;9.186;2023-12-20T01:22:21;3.40;94.40
27567;DHT22;15006;48.584;9.186;2023-12-20T01:24:48;3.30;94.50
27567;DHT22;15006;48.584;9.186;2023-12-20T01:27:14;3.40;94.70
27567;DHT22;15006;48.584;9.186;2023-12-20T01:29:40;3.30;94.90
27567;DHT22;15006;48.584;9.186;2023-12-20T01:32:06;3.30;95.00
27567;DHT22;15006;48.584;9.186;2023-12-20T01:34:32;3.20;95.20
27567;DHT22;15006;48.584;9.186;2023-12-20T01:36:58;3.20;95.60
27567;DHT22;15006;48.584;9.186;2023-12-20T01:39:26;3.10;96.00
27567;DHT22;15006;48.584;9.186;2023-12-20T01:41:52;3.10;96.50
27567;DHT22;15006;48.584;9.186;2023-12-20T01:44:18;3.00;97.00
27567;DHT22;15006;48.584;9.186;2023-12-20T01:46:45;3.00;97.90
27567;DHT22;15006;48.584;9.186;2023-12-20T01:49:11;3.00;98.00
27567;DHT22;15006;48.584;9.186;2023-12-20T01:51:37;2.90;98.40
27567;DHT22;15006;48.584;9.186;2023-12-20T01:54:04;2.90;98.90
27567;DHT22;15006;48.584;9.186;2023-12-20T01:56:30;2.90;99.40
27567;DHT22;15006;48.584;9.186;2023-12-20T01:58:58;2.80;99.90
27567;DHT22;15006;48.584;9.186;2023-12-20T02:01:24;2.80;99.90
27567;DHT22;15006;48.584;9.186;2023-12-20T02:03:51;2.80;99.90
27567;DHT22;15006;48.584;9.186;2023-12-20T02:06:18;2.80;99.90
27567;DHT22;15006;48.584;9.186;2023-12-20T02:08:47;2.80;99.90
27567;DHT22;15006;48.584;9.186;2023-12-20T02:11:13;2.70;99.90
27567;DHT22;15006;48.584;9.186;2023-12-20T02:13:39;2.70;99.90
27567;DHT22;15006;48.584;9.186;2023-12-20T02:16:05;2.70;99.90
27567;DHT22;15006;48.584;9.186;2023-12-20T02:18:33;2.70;99.90
27567;DHT22;15006;48.584;9.186;2023-12-20T02:20:59;2.70;99.90
27567;DHT22;15006;48.584;9.186;2023-12-20T02:23:25;2.70;99.90
27567;DHT22;15006;48.584;9.186;2023-12-20T02:25:51;2.60;99.90
27567;DHT22;15006;48.584;9.186;2023-12-20T02:28:17;2.60;99.90
27567;DHT22;15006;48.584;9.186;2023-12-20T02:30:44;2.70;99.90
27567;DHT22;15006;48.584;9.186;2023-12-20T02:33:12;2.70;99.90
27567;DHT22;15006;48.584;9.186;2023-12-20T02:35:38;2.70;99.90
27567;DHT22;15006;48.584;9.186;2023-12-20T02:38:04;2.60;99.90
27567;DHT22;15006;48.584;9.186;2023-12-20T02:40:29;2.60;99.90
27567;DHT22;15006;48.584;9.186;2023-12-20T02:42:56;2.60;99.90
27567;DHT22;15006;48.584;9.186;2023-12-20T02:45:21;2.60;99.90
27567;DHT22;15006;48.584;9.186;2023-12-20T02:47:47;2.60;99.90
27567;DHT22;15006;48.584;9.186;2023-12-20T02:50:13;2.60;99.90
27567;DHT22;15006;48.584;9.186;2023-12-20T02:52:40;2.60;99.90
27567;DHT22;15006;48.584;9.186;2023-12-20T02:55:06;2.60;99.90
27567;DHT22;15006;48.584;9.186;2023-12-20T02:57:32;2.60;99.90
27567;DHT22;15006;48.584;9.186;2023-12-20T02:59:59;2.50;99.90
27567;DHT22;15006;48.584;9.186;2023-12-20T03:02:25;2.60;99.90
27567;DHT22;15006;48.584;9.186;2023-12-20T03:04:51;2.50;99.90
27567;DHT22;15006;48.584;9.186;2023-12-20T03:07:17;2.50;99.90
27567;DHT22;15006;48.584;9.186;2023-12-20T03:09:43;2.50;99.90
27567;DHT22;15006;48.584;9.186;2023-12-20T03:12:09;2.60;99.90
27567;DHT22;15006;48.584;9.186;2023-12-20T03:14:35;2.50;99.90
27567;DHT22;15006;48.584;9.186;2023-12-20T03:17:01;2.50;99.90
27567;DHT22;15006;48.584;9.186;2023-12-20T03:19:27;2.60;99.90
27567;DHT22;15006;48.584;9.186;2023-12-20T03:21:54;2.50;99.90
27567;DHT22;15006;48.584;9.186;2023-12-20T03:24:20;2.50;99.90
27567;DHT22;15006;48.584;9.186;2023-12-20T03:26:46;2.50;99.90
27567;DHT22;15006;48.584;9.186;2023-12-20T03:29:12;2.60;99.90
27567;DHT22;15006;48.584;9.186;2023-12-20T03:31:38;2.60;99.90
27567;DHT22;15006;48.584;9.186;2023-12-20T03:34:05;2.60;99.90
27567;DHT22;15006;48.584;9.186;2023-12-20T03:36:31;2.60;99.90
27567;DHT22;15006;48.584;9.186;2023-12-20T03:38:58;2.60;99.90
27567;DHT22;15006;48.584;9.186;2023-12-20T03:41:24;2.60;99.90
27567;DHT22;15006;48.584;9.186;2023-12-20T03:43:49;2.60;99.90
27567;DHT22;15006;48.584;9.186;2023-12-20T03:46:16;2.50;99.90
27567;DHT22;15006;48.584;9.186;2023-12-20T03:48:42;2.50;99.90
27567;DHT22;15006;48.584;9.186;2023-12-20T03:51:08;2.60;99.90
27567;DHT22;15006;48.584;9.186;2023-12-20T03:53:34;2.60;99.90
27567;DHT22;15006;48.584;9.186;2023-12-20T03:56:00;2.60;99.90
27567;DHT22;15006;48.584;9.186;2023-12-20T03:58:26;2.50;99.90
27567;DHT22;15006;48.584;9.186;2023-12-20T04:00:52;2.60;99.90
27567;DHT22;15006;48.584;9.186;2023-12-20T04:03:18;2.60;99.90
27567;DHT22;15006;48.584;9.186;2023-12-20T04:05:44;2.60;99.90
27567;DHT22;15006;48.584;9.186;2023-12-20T04:08:11;2.50;99.90
27567;DHT22;15006;48.584;9.186;2023-12-20T04:10:37;2.50;99.90
27567;DHT22;15006;48.584;9.186;2023-12-20T04:13:03;2.50;99.90
27567;DHT22;15006;48.584;9.186;2023-12-20T04:15:30;2.50;99.90
27567;DHT22;15006;48.584;9.186;2023-12-20T04:17:56;2.50;99.90
27567;DHT22;15006;48.584;9.186;2023-12-20T04:20:22;2.50;99.90
27567;DHT22;15006;48.584;9.186;2023-12-20T04:22:48;2.40;99.90
27567;DHT22;15006;48.584;9.186;2023-12-20T04:25:14;2.50;99.90
27567;DHT22;15006;48.584;9.186;2023-12-20T04:27:40;2.40;99.90
27567;DHT22;15006;48.584;9.186;2023-12-20T04:30:07;2.40;99.90
27567;DHT22;15006;48.584;9.186;2023-12-20T04:32:33;2.40;99.90
27567;DHT22;15006;48.584;9.186;2023-12-20T04:34:59;2.40;99.90
27567;DHT22;15006;48.584;9.186;2023-12-20T04:37:25;2.40;99.90
27567;DHT22;15006;48.584;9.186;2023-12-20T04:39:51;2.40;99.90
27567;DHT22;15006;48.584;9.186;2023-12-20T04:42:18;2.30;99.90
27567;DHT22;15006;48.584;9.186;2023-12-20T04:44:44;2.30;99.90
27567;DHT22;15006;48.584;9.186;2023-12-20T04:47:10;2.30;99.90
27567;DHT22;15006;48.584;9.186;2023-12-20T04:49:37;2.30;99.90
27567;DHT22;15006;48.584;9.186;2023-12-20T04:52:03;2.30;99.90
27567;DHT22;15006;48.584;9.186;2023-12-20T04:54:29;2.20;99.90
27567;DHT22;15006;48.584;9.186;2023-12-20T04:56:56;2.20;99.90
27567;DHT22;15006;48.584;9.186;2023-12-20T04:59:21;2.20;99.90
27567;DHT22;15006;48.584;9.186;2023-12-20T05:01:47;2.20;99.90
27567;DHT22;15006;48.584;9.186;2023-12-20T05:04:14;2.10;99.90
27567;DHT22;15006;48.584;9.186;2023-12-20T05:06:40;2.10;99.90
27567;DHT22;15006;48.584;9.186;2023-12-20T05:09:07;2.10;99.90
27567;DHT22;15006;48.584;9.186;2023-12-20T05:11:33;2.10;99.90
27567;DHT22;15006;48.584;9.186;2023-12-20T05:13:59;2.10;99.90
27567;DHT22;15006;48.584;9.186;2023-12-20T05:16:25;2.10;99.90
27567;DHT22;15006;48.584;9.186;2023-12-20T05:18:51;2.10;99.90
27567;DHT22;15006;48.584;9.186;2023-12-20T05:21:18;2.10;99.90
27567;DHT22;15006;48.584;9.186;2023-12-20T05:23:44;2.10;99.90
27567;DHT22;15006;48.584;9.186;2023-12-20T05:26:10;2.10;99.90
27567;DHT22;15006;48.584;9.186;2023-12-20T05:28:36;2.10;99.90
27567;DHT22;15006;48.584;9.186;2023-12-20T05:31:02;2.10;99.90
27567;DHT22;15006;48.584;9.186;2023-12-20T05:33:28;2.10;99.90
27567;DHT22;15006;48.584;9.186;2023-12-20T05:35:54;2.10;99.90
27567;DHT22;15006;48.584;9.186;2023-12-20T05:38:21;2.10;99.90
27567;DHT22;15006;48.584;9.186;2023-12-20T05:40:47;2.10;99.90
27567;DHT22;15006;48.584;9.186;2023-12-20T05:43:13;2.10;99.90
27567;DHT22;15006;48.584;9.186;2023-12-20T05:45:40;2.10;99.90
27567;DHT22;15006;48.584;9.186;2023-12-20T05:48:06;2.10;99.90
27567;DHT22;15006;48.584;9.186;2023-12-20T05:50:33;2.10;99.90
27567;DHT22;15006;48.584;9.186;2023-12-20T05:53:00;2.10;99.90
27567;DHT22;15006;48.584;9.186;2023-12-20T05:55:27;2.10;99.90
27567;DHT22;15006;48.584;9.186;2023-12-20T05:57:53;2.10;99.90
27567;DHT22;15006;48.584;9.186;2023-12-20T06:00:19;2.10;99.90
27567;DHT22;15006;48.584;9.186;2023-12-20T06:02:45;2.10;99.90
27567;DHT22;15006;48.584;9.186;2023-12-20T06:05:11;2.10;99.90
27567;DHT22;15006;48.584;9.186;2023-12-20T06:07:38;2.10;99.90
27567;DHT22;15006;48.584;9.186;2023-12-20T06:10:04;2.10;99.90
27567;DHT22;15006;48.584;9.186;2023-12-20T06:12:32;2.10;99.90
27567;DHT22;15006;48.584;9.186;2023-12-20T06:15:43;2.10;99.90
27567;DHT22;15006;48.584;9.186;2023-12-20T06:18:09;2.10;99.90
27567;DHT22;15006;48.584;9.186;2023-12-20T06:20:35;2.10;99.90
27567;DHT22;15006;48.584;9.186;2023-12-20T06:23:01;2.10;99.90
27567;DHT22;15006;48.584;9.186;2023-12-20T06:25:27;2.10;99.90
27567;DHT22;15006;48.584;9.186;2023-12-20T06:27:53;2.10;99.90
27567;DHT22;15006;48.584;9.186;2023-12-20T06:30:20;2.00;99.90
27567;DHT22;15006;48.584;9.186;2023-12-20T06:32:46;2.00;99.90
27567;DHT22;15006;48.584;9.186;2023-12-20T06:35:12;2.00;99.90
27567;DHT22;15006;48.584;9.186;2023-12-20T06:37:38;2.00;99.90
27567;DHT22;15006;48.584;9.186;2023-12-20T06:40:09;2.00;99.90
27567;DHT22;15006;48.584;9.186;2023-12-20T06:42:36;2.00;99.90
27567;DHT22;15006;48.584;9.186;2023-12-20T06:45:03;2.00;99.90
27567;DHT22;15006;48.584;9.186;2023-12-20T06:47:29;2.00;99.90
27567;DHT22;15006;48.584;9.186;2023-12-20T06:49:55;2.00;99.90
27567;DHT22;15006;48.584;9.186;2023-12-20T06:52:21;2.00;99.90
27567;DHT22;15006;48.584;9.186;2023-12-20T06:54:47;2.00;99.90
27567;DHT22;15006;48.584;9.186;2023-12-20T06:57:13;2.00;99.90
27567;DHT22;15006;48.584;9.186;2023-12-20T06:59:40;2.00;99.90
27567;DHT22;15006;48.584;9.186;2023-12-20T07:02:06;2.00;99.90
27567;DHT22;15006;48.584;9.186;2023-12-20T07:04:35;2.00;99.90
27567;DHT22;15006;48.584;9.186;2023-12-20T07:07:05;2.00;99.90
27567;DHT22;15006;48.584;9.186;2023-12-20T07:09:31;2.00;99.90
27567;DHT22;15006;48.584;9.186;2023-12-20T07:11:57;2.00;99.90
27567;DHT22;15006;48.584;9.186;2023-12-20T07:14:24;2.00;99.90
27567;DHT22;15006;48.584;9.186;2023-12-20T07:16:50;2.10;99.90
27567;DHT22;15006;48.584;9.186;2023-12-20T07:19:16;2.00;99.90
27567;DHT22;15006;48.584;9.186;2023-12-20T07:21:42;2.00;99.90
27567;DHT22;15006;48.584;9.186;2023-12-20T07:24:08;2.00;99.90
27567;DHT22;15006;48.584;9.186;2023-12-20T07:26:35;2.00;99.90
27567;DHT22;15006;48.584;9.186;2023-12-20T07:29:01;2.10;99.90
27567;DHT22;15006;48.584;9.186;2023-12-20T07:31:27;2.00;99.90
27567;DHT22;15006;48.584;9.186;2023-12-20T07:33:53;2.10;99.90
27567;DHT22;15006;48.584;9.186;2023-12-20T07:36:19;2.10;99.90
27567;DHT22;15006;48.584;9.186;2023-12-20T07:38:47;2.10;99.90
27567;DHT22;15006;48.584;9.186;2023-12-20T07:41:13;2.10;99.90
27567;DHT22;15006;48.584;9.186;2023-12-20T07:43:39;2.10;99.90
27567;DHT22;15006;48.584;9.186;2023-12-20T07:46:08;2.10;99.90
27567;DHT22;15006;48.584;9.186;2023-12-20T07:48:34;2.20;99.90
27567;DHT22;15006;48.584;9.186;2023-12-20T07:51:01;2.20;99.90
27567;DHT22;15006;48.584;9.186;2023-12-20T07:53:28;2.20;99.90
27567;DHT22;15006;48.584;9.186;2023-12-20T07:55:54;2.30;99.90
27567;DHT22;15006;48.584;9.186;2023-12-20T07:58:21;2.30;99.90
27567;DHT22;15006;48.584;9.186;2023-12-20T08:00:47;2.30;99.90
27567;DHT22;15006;48.584;9.186;2023-12-20T08:03:14;2.30;99.90
27567;DHT22;15006;48.584;9.186;2023-12-20T08:05:40;2.30;99.90
27567;DHT22;15006;48.584;9.186;2023-12-20T08:08:06;2.30;99.90
27567;DHT22;15006;48.584;9.186;2023-12-20T08:10:32;2.40;99.90
27567;DHT22;15006;48.584;9.186;2023-12-20T08:12:58;2.30;99.90
27567;DHT22;15006;48.584;9.186;2023-12-20T08:15:24;2.40;99.90
27567;DHT22;15006;48.584;9.186;2023-12-20T08:17:50;2.40;99.90
27567;DHT22;15006;48.584;9.186;2023-12-20T08:20:17;2.40;99.90
27567;DHT22;15006;48.584;9.186;2023-12-20T08:22:43;2.40;99.90
27567;DHT22;15006;48.584;9.186;2023-12-20T08:25:09;2.40;99.90
27567;DHT22;15006;48.584;9.186;2023-12-20T08:27:40;2.40;99.90
27567;DHT22;15006;48.584;9.186;2023-12-20T08:30:08;2.50;99.90
27567;DHT22;15006;48.584;9.186;2023-12-20T08:32:35;2.50;99.90
27567;DHT22;15006;48.584;9.186;2023-12-20T08:35:01;2.50;99.90
27567;DHT22;15006;48.584;9.186;2023-12-20T08:37:29;2.60;99.90
27567;DHT22;15006;48.584;9.186;2023-12-20T08:39:56;2.60;99.90
27567;DHT22;15006;48.584;9.186;2023-12-20T08:42:22;2.60;99.90
27567;DHT22;15006;48.584;9.186;2023-12-20T08:44:50;2.60;99.90
27567;DHT22;15006;48.584;9.186;2023-12-20T08:47:16;2.60;99.90
27567;DHT22;15006;48.584;9.186;2023-12-20T08:49:43;2.60;99.90
27567;DHT22;15006;48.584;9.186;2023-12-20T08:52:09;2.70;99.90
27567;DHT22;15006;48.584;9.186;2023-12-20T08:54:35;2.70;99.90
27567;DHT22;15006;48.584;9.186;2023-12-20T08:57:01;2.70;99.90
27567;DHT22;15006;48.584;9.186;2023-12-20T08:59:28;2.70;99.90
27567;DHT22;15006;48.584;9.186;2023-12-20T09:01:54;2.70;99.90
27567;DHT22;15006;48.584;9.186;2023-12-20T09:04:21;2.80;99.90
27567;DHT22;15006;48.584;9.186;2023-12-20T09:06:48;2.80;99.90
27567;DHT22;15006;48.584;9.186;2023-12-20T09:09:14;2.80;99.90
27567;DHT22;15006;48.584;9.186;2023-12-20T09:11:41;2.80;99.90
27567;DHT22;15006;48.584;9.186;2023-12-20T09:14:08;2.70;99.90
27567;DHT22;15006;48.584;9.186;2023-12-20T09:16:34;2.70;99.90
27567;DHT22;15006;48.584;9.186;2023-12-20T09:19:00;2.70;99.90
27567;DHT22;15006;48.584;9.186;2023-12-20T09:21:26;2.60;99.90
27567;DHT22;15006;48.584;9.186;2023-12-20T09:23:52;2.60;99.90
27567;DHT22;15006;48.584;9.186;2023-12-20T09:26:18;2.60;99.90
27567;DHT22;15006;48.584;9.186;2023-12-20T09:28:45;2.60;99.90
27567;DHT22;15006;48.584;9.186;2023-12-20T09:31:11;2.50;99.90
27567;DHT22;15006;48.584;9.186;2023-12-20T09:33:37;2.50;99.90
27567;DHT22;15006;48.584;9.186;2023-12-20T09:36:03;2.50;99.90
27567;DHT22;15006;48.584;9.186;2023-12-20T09:38:29;2.40;99.90
27567;DHT22;15006;48.584;9.186;2023-12-20T09:40:55;2.40;99.90
27567;DHT22;15006;48.584;9.186;2023-12-20T09:43:24;2.40;99.90
27567;DHT22;15006;48.584;9.186;2023-12-20T09:45:53;2.40;99.90
27567;DHT22;15006;48.584;9.186;2023-12-20T09:48:19;2.40;99.90
27567;DHT22;15006;48.584;9.186;2023-12-20T09:50:46;2.40;99.90
27567;DHT22;15006;48.584;9.186;2023-12-20T09:53:15;2.40;99.90
27567;DHT22;15006;48.584;9.186;2023-12-20T09:55:42;2.40;99.90
27567;DHT22;15006;48.584;9.186;2023-12-20T09:58:08;2.50;99.90
27567;DHT22;15006;48.584;9.186;2023-12-20T10:00:35;2.50;99.90
27567;DHT22;15006;48.584;9.186;2023-12-20T10:03:01;2.50;99.90
27567;DHT22;15006;48.584;9.186;2023-12-20T10:05:29;2.60;99.90
27567;DHT22;15006;48.584;9.186;2023-12-20T10:07:57;2.60;99.90
27567;DHT22;15006;48.584;9.186;2023-12-20T10:10:23;2.60;99.90
27567;DHT22;15006;48.584;9.186;2023-12-20T10:15:29;2.70;98.80
27567;DHT22;15006;48.584;9.186;2023-12-20T10:17:57;2.70;99.90
27567;DHT22;15006;48.584;9.186;2023-12-20T10:20:23;2.70;99.90
27567;DHT22;15006;48.584;9.186;2023-12-20T10:22:49;2.70;99.90
27567;DHT22;15006;48.584;9.186;2023-12-20T10:25:16;2.70;99.90
27567;DHT22;15006;48.584;9.186;2023-12-20T10:27:43;2.70;99.90
27567;DHT22;15006;48.584;9.186;2023-12-20T10:30:09;2.80;99.90
27567;DHT22;15006;48.584;9.186;2023-12-20T10:32:36;2.80;99.90
27567;DHT22;15006;48.584;9.186;2023-12-20T10:35:02;2.90;99.90
27567;DHT22;15006;48.584;9.186;2023-12-20T10:37:28;2.90;99.30
27567;DHT22;15006;48.584;9.186;2023-12-20T10:39:55;2.90;97.60
27567;DHT22;15006;48.584;9.186;2023-12-20T10:42:26;3.00;98.80
27567;DHT22;15006;48.584;9.186;2023-12-20T10:44:52;3.00;95.60
27567;DHT22;15006;48.584;9.186;2023-12-20T10:47:20;3.10;97.20
27567;DHT22;15006;48.584;9.186;2023-12-20T10:49:46;3.10;98.10
27567;DHT22;15006;48.584;9.186;2023-12-20T10:52:13;3.10;98.40
27567;DHT22;15006;48.584;9.186;2023-12-20T10:54:40;3.20;96.30
27567;DHT22;15006;48.584;9.186;2023-12-20T10:57:07;3.20;94.70
27567;DHT22;15006;48.584;9.186;2023-12-20T10:59:36;3.20;96.80
27567;DHT22;15006;48.584;9.186;2023-12-20T11:02:04;3.40;97.80
27567;DHT22;15006;48.584;9.186;2023-12-20T11:04:51;3.60;99.10
27567;DHT22;15006;48.584;9.186;2023-12-20T11:07:36;3.80;93.20
27567;DHT22;15006;48.584;9.186;2023-12-20T11:13:06;4.40;95.60
27567;DHT22;15006;48.584;9.186;2023-12-20T11:15:43;4.70;95.80
27567;DHT22;15006;48.584;9.186;2023-12-20T11:18:10;5.10;99.90
27567;DHT22;15006;48.584;9.186;2023-12-20T11:20:40;5.50;99.90
27567;DHT22;15006;48.584;9.186;2023-12-20T11:23:08;5.80;92.90
27567;DHT22;15006;48.584;9.186;2023-12-20T11:25:54;6.00;91.50
27567;DHT22;15006;48.584;9.186;2023-12-20T11:28:25;6.10;83.90
27567;DHT22;15006;48.584;9.186;2023-12-20T11:30:53;6.20;88.40
27567;DHT22;15006;48.584;9.186;2023-12-20T11:33:39;6.10;86.60
27567;DHT22;15006;48.584;9.186;2023-12-20T11:36:16;6.10;86.20
27567;DHT22;15006;48.584;9.186;2023-12-20T11:38:57;6.00;83.10
27567;DHT22;15006;48.584;9.186;2023-12-20T11:41:24;6.00;86.90
27567;DHT22;15006;48.584;9.186;2023-12-20T11:43:54;6.00;90.10
27567;DHT22;15006;48.584;9.186;2023-12-20T11:46:22;6.10;90.20
27567;DHT22;15006;48.584;9.186;2023-12-20T11:48:48;6.20;89.10
27567;DHT22;15006;48.584;9.186;2023-12-20T11:51:15;6.20;84.10
27567;DHT22;15006;48.584;9.186;2023-12-20T11:53:41;6.10;78.90
27567;DHT22;15006;48.584;9.186;2023-12-20T11:56:10;5.80;81.10
27567;DHT22;15006;48.584;9.186;2023-12-20T11:58:36;5.60;83.70
27567;DHT22;15006;48.584;9.186;2023-12-20T12:01:03;5.40;85.40
27567;DHT22;15006;48.584;9.186;2023-12-20T12:03:32;5.30;87.10
27567;DHT22;15006;48.584;9.186;2023-12-20T12:06:00;5.20;84.40
27567;DHT22;15006;48.584;9.186;2023-12-20T12:08:27;5.20;85.00
27567;DHT22;15006;48.584;9.186;2023-12-20T12:10:53;5.00;83.80
27567;DHT22;15006;48.584;9.186;2023-12-20T12:13:19;4.90;80.80
27567;DHT22;15006;48.584;9.186;2023-12-20T12:15:45;4.70;78.10
27567;DHT22;15006;48.584;9.186;2023-12-20T12:18:16;4.50;79.90
27567;DHT22;15006;48.584;9.186;2023-12-20T12:20:42;4.40;76.80
27567;DHT22;15006;48.584;9.186;2023-12-20T12:23:09;4.20;77.70
27567;DHT22;15006;48.584;9.186;2023-12-20T12:25:36;4.00;82.90
27567;DHT22;15006;48.584;9.186;2023-12-20T12:28:03;3.90;82.30
27567;DHT22;15006;48.584;9.186;2023-12-20T12:30:30;3.70;84.10
27567;DHT22;15006;48.584;9.186;2023-12-20T12:32:56;3.60;83.60
27567;DHT22;15006;48.584;9.186;2023-12-20T12:35:23;3.50;80.80
27567;DHT22;15006;48.584;9.186;2023-12-20T12:37:51;3.30;81.10
27567;DHT22;15006;48.584;9.186;2023-12-20T12:40:17;3.20;85.00
27567;DHT22;15006;48.584;9.186;2023-12-20T12:42:44;3.10;85.70
27567;DHT22;15006;48.584;9.186;2023-12-20T12:45:11;3.10;84.70
27567;DHT22;15006;48.584;9.186;2023-12-20T12:47:38;3.00;86.20
27567;DHT22;15006;48.584;9.186;2023-12-20T12:50:05;2.90;85.90
27567;DHT22;15006;48.584;9.186;2023-12-20T12:52:31;2.90;88.10
27567;DHT22;15006;48.584;9.186;2023-12-20T12:54:58;2.80;89.30
27567;DHT22;15006;48.584;9.186;2023-12-20T12:57:25;2.80;89.50
27567;DHT22;15006;48.584;9.186;2023-12-20T12:59:51;2.80;90.30
27567;DHT22;15006;48.584;9.186;2023-12-20T13:02:17;2.80;90.70
27567;DHT22;15006;48.584;9.186;2023-12-20T13:04:44;2.80;91.20
27567;DHT22;15006;48.584;9.186;2023-12-20T13:07:10;2.80;90.30
27567;DHT22;15006;48.584;9.186;2023-12-20T13:09:37;2.80;89.70
27567;DHT22;15006;48.584;9.186;2023-12-20T13:12:03;2.80;91.30
27567;DHT22;15006;48.584;9.186;2023-12-20T13:14:33;2.80;91.50
27567;DHT22;15006;48.584;9.186;2023-12-20T13:17:03;2.80;91.50
27567;DHT22;15006;48.584;9.186;2023-12-20T13:19:29;2.80;91.80
27567;DHT22;15006;48.584;9.186;2023-12-20T13:21:56;2.90;91.50
27567;DHT22;15006;48.584;9.186;2023-12-20T13:24:23;3.00;91.70
27567;DHT22;15006;48.584;9.186;2023-12-20T13:26:50;3.00;91.10
27567;DHT22;15006;48.584;9.186;2023-12-20T13:29:16;3.00;91.40
27567;DHT22;15006;48.584;9.186;2023-12-20T13:31:42;3.10;91.30
27567;DHT22;15006;48.584;9.186;2023-12-20T13:34:08;3.20;91.80
27567;DHT22;15006;48.584;9.186;2023-12-20T13:36:34;3.30;91.20
27567;DHT22;15006;48.584;9.186;2023-12-20T13:39:03;3.40;91.60
27567;DHT22;15006;48.584;9.186;2023-12-20T13:41:31;3.50;91.70
27567;DHT22;15006;48.584;9.186;2023-12-20T13:43:57;3.60;91.40
27567;DHT22;15006;48.584;9.186;2023-12-20T13:46:23;3.60;90.70
27567;DHT22;15006;48.584;9.186;2023-12-20T13:48:50;3.70;90.50
27567;DHT22;15006;48.584;9.186;2023-12-20T13:51:16;3.70;90.50
27567;DHT22;15006;48.584;9.186;2023-12-20T13:53:42;3.70;88.50
27567;DHT22;15006;48.584;9.186;2023-12-20T13:56:08;3.70;87.20
27567;DHT22;15006;48.584;9.186;2023-12-20T13:58:34;3.60;88.20
27567;DHT22;15006;48.584;9.186;2023-12-20T14:01:00;3.60;88.30
27567;DHT22;15006;48.584;9.186;2023-12-20T14:03:26;3.50;88.70
27567;DHT22;15006;48.584;9.186;2023-12-20T14:05:52;3.40;86.80
27567;DHT22;15006;48.584;9.186;2023-12-20T14:08:18;3.40;87.90
27567;DHT22;15006;48.584;9.186;2023-12-20T14:10:44;3.30;88.70
27567;DHT22;15006;48.584;9.186;2023-12-20T14:13:10;3.30;89.70
27567;DHT22;15006;48.584;9.186;2023-12-20T14:15:36;3.20;88.60
27567;DHT22;15006;48.584;9.186;2023-12-20T14:18:06;3.20;86.90
27567;DHT22;15006;48.584;9.186;2023-12-20T14:20:33;3.20;87.50
27567;DHT22;15006;48.584;9.186;2023-12-20T14:23:04;3.10;88.80
27567;DHT22;15006;48.584;9.186;2023-12-20T14:25:30;3.10;89.00
27567;DHT22;15006;48.584;9.186;2023-12-20T14:27:57;3.10;90.60
27567;DHT22;15006;48.584;9.186;2023-12-20T14:30:23;3.00;90.90
27567;DHT22;15006;48.584;9.186;2023-12-20T14:32:50;3.00;89.90
27567;DHT22;15006;48.584;9.186;2023-12-20T14:35:16;3.00;90.10
27567;DHT22;15006;48.584;9.186;2023-12-20T14:37:42;3.00;90.40
27567;DHT22;15006;48.584;9.186;2023-12-20T14:40:09;2.90;90.00
27567;DHT22;15006;48.584;9.186;2023-12-20T14:42:36;2.90;89.60
27567;DHT22;15006;48.584;9.186;2023-12-20T14:45:03;2.80;89.20
27567;DHT22;15006;48.584;9.186;2023-12-20T14:47:30;2.70;89.60
27567;DHT22;15006;48.584;9.186;2023-12-20T14:49:56;2.70;90.50
27567;DHT22;15006;48.584;9.186;2023-12-20T14:52:22;2.70;90.80
27567;DHT22;15006;48.584;9.186;2023-12-20T14:54:49;2.60;90.90
27567;DHT22;15006;48.584;9.186;2023-12-20T14:57:14;2.50;90.70
27567;DHT22;15006;48.584;9.186;2023-12-20T14:59:41;2.50;90.50
27567;DHT22;15006;48.584;9.186;2023-12-20T15:02:07;2.40;91.00
27567;DHT22;15006;48.584;9.186;2023-12-20T15:04:33;2.40;91.30
27567;DHT22;15006;48.584;9.186;2023-12-20T15:06:59;2.40;91.60
27567;DHT22;15006;48.584;9.186;2023-12-20T15:09:27;2.30;91.80
27567;DHT22;15006;48.584;9.186;2023-12-20T15:11:55;2.30;91.90
27567;DHT22;15006;48.584;9.186;2023-12-20T15:14:21;2.20;91.80
27567;DHT22;15006;48.584;9.186;2023-12-20T15:16:47;2.20;91.50
27567;DHT22;15006;48.584;9.186;2023-12-20T15:19:13;2.20;91.80
27567;DHT22;15006;48.584;9.186;2023-12-20T15:21:39;2.20;91.80
27567;DHT22;15006;48.584;9.186;2023-12-20T15:24:12;2.20;92.10
27567;DHT22;15006;48.584;9.186;2023-12-20T15:26:43;2.10;92.30
27567;DHT22;15006;48.584;9.186;2023-12-20T15:29:11;2.10;92.50
27567;DHT22;15006;48.584;9.186;2023-12-20T15:31:44;2.10;92.40
27567;DHT22;15006;48.584;9.186;2023-12-20T15:34:14;2.10;92.20
27567;DHT22;15006;48.584;9.186;2023-12-20T15:36:41;2.00;92.60
27567;DHT22;15006;48.584;9.186;2023-12-20T15:39:08;2.00;93.00
27567;DHT22;15006;48.584;9.186;2023-12-20T15:41:34;2.00;93.00
27567;DHT22;15006;48.584;9.186;2023-12-20T15:44:01;2.00;92.60
27567;DHT22;15006;48.584;9.186;2023-12-20T15:46:27;2.00;92.90
27567;DHT22;15006;48.584;9.186;2023-12-20T15:48:53;2.00;93.20